Time;durP1;ratioP1;P1;durP2;ratioP2;P2;SDS_P1;SDS_P2;PMS_P1;PMS_P2;Temp;Humidity;BMP_temperature;BMP_pressure;BME280_temperature;BME280_humidity;BME280_pressure;Samples;Min_cycle;Max_cycle;Signal;HPM_P1;HPM_P2
2022/05/16 00:02:10;;;;;;;11.80;3.78;;;42.70;11.30;;;;;;5018846;28;20034;-60
2022/05/16 00:04:38;;;;;;;8.27;2.15;;;42.70;11.70;;;;;;5023697;28;20040;-59
2022/05/16 00:07:04;;;;;;;6.40;1.83;;;42.60;11.40;;;;;;5009528;28;20031;-60
2022/05/16 00:09:31;;;;;;;6.72;1.40;;;42.50;11.50;;;;;;5014131;28;20079;-61
2022/05/16 00:11:57;;;;;;;9.52;1.55;;;42.60;11.70;;;;;;5010948;28;20033;-59
2022/05/16 00:14:24;;;;;;;11.10;2.20;;;42.70;12.10;;;;;;5042231;28;20029;-60
2022/05/16 00:16:50;;;;;;;8.95;1.75;;;42.50;11.50;;;;;;5020290;28;20132;-59
2022/05/16 00:19:17;;;;;;;16.70;1.67;;;42.40;11.30;;;;;;5014810;28;21453;-60
2022/05/16 00:21:43;;;;;;;28.55;2.90;;;42.30;12.50;;;;;;5011755;28;20116;-60
2022/05/16 00:24:10;;;;;;;31.85;3.00;;;42.10;12.50;;;;;;5013669;28;20484;-60
2022/05/16 00:26:36;;;;;;;18.88;2.90;;;42.00;12.50;;;;;;5015325;28;20451;-61
2022/05/16 00:29:03;;;;;;;26.05;2.80;;;41.80;12.60;;;;;;5011676;28;20042;-61
2022/05/16 00:31:29;;;;;;;22.02;3.15;;;41.80;12.30;;;;;;4996543;28;20030;-59
2022/05/16 00:33:55;;;;;;;18.42;2.65;;;41.80;12.90;;;;;;5007067;28;20025;-60
2022/05/16 00:36:22;;;;;;;24.85;2.63;;;41.70;12.50;;;;;;5022120;28;20071;-62
2022/05/16 00:38:50;;;;;;;22.10;2.45;;;41.60;12.50;;;;;;5011519;28;20053;-63
2022/05/16 00:41:17;;;;;;;18.38;1.95;;;41.50;12.70;;;;;;5012515;28;20042;-60
2022/05/16 00:43:53;;;;;;;18.13;2.10;;;41.50;12.70;;;;;;5029015;28;20526;-61
2022/05/16 00:46:21;;;;;;;11.93;2.05;;;41.50;12.50;;;;;;5012289;28;20511;-61
2022/05/16 00:48:47;;;;;;;21.63;2.33;;;41.40;12.50;;;;;;5013616;28;20021;-60
2022/05/16 00:51:29;;;;;;;26.27;3.95;;;41.40;13.20;;;;;;5012996;28;20026;-60
2022/05/16 00:54:00;;;;;;;29.85;4.85;;;41.30;13.60;;;;;;5013886;28;20578;-61
2022/05/16 00:56:28;;;;;;;92.25;9.10;;;41.00;13.80;;;;;;4999094;28;20053;-61
2022/05/16 00:58:56;;;;;;;90.18;8.18;;;40.60;13.80;;;;;;5012238;28;20038;-60
2022/05/16 01:06:54;;;;;;;52.75;7.00;;;39.70;14.00;;;;;;5017879;28;20032;-60
2022/05/16 01:09:21;;;;;;;41.90;6.25;;;39.50;14.20;;;;;;5012174;28;20036;-61
2022/05/16 01:11:48;;;;;;;46.72;6.28;;;39.40;14.00;;;;;;5018667;28;20030;-62
2022/05/16 01:14:40;;;;;;;49.40;7.57;;;39.30;13.90;;;;;;5012587;28;20033;-62
2022/05/16 01:17:07;;;;;;;61.60;9.13;;;39.10;14.00;;;;;;5012840;28;20405;-61
2022/05/16 01:19:33;;;;;;;47.20;8.05;;;38.90;14.00;;;;;;5013587;28;20033;-61
2022/05/16 01:22:05;;;;;;;62.70;8.68;;;38.80;14.20;;;;;;5012001;28;20030;-62
2022/05/16 01:24:32;;;;;;;37.78;6.90;;;38.80;14.20;;;;;;5013366;28;20133;-61
2022/05/16 01:26:58;;;;;;;44.03;6.57;;;38.70;14.70;;;;;;5013461;28;20117;-62
2022/05/16 01:29:24;;;;;;;43.35;7.18;;;38.60;14.10;;;;;;5016712;28;20032;-63
2022/05/16 01:31:50;;;;;;;53.95;8.32;;;38.40;14.20;;;;;;5014370;28;20033;-60
2022/05/16 01:34:17;;;;;;;49.00;6.88;;;38.30;13.90;;;;;;5014685;28;20120;-61
2022/05/16 01:36:43;;;;;;;46.97;6.75;;;38.20;14.00;;;;;;5013175;28;20034;-62
2022/05/16 01:39:10;;;;;;;63.53;8.20;;;38.10;13.90;;;;;;5000187;28;20025;-63
2022/05/16 01:41:36;;;;;;;47.40;7.95;;;38.00;13.50;;;;;;5012903;28;20029;-63
2022/05/16 01:44:02;;;;;;;47.08;7.95;;;37.90;13.30;;;;;;5042990;28;20052;-62
2022/05/16 01:46:33;;;;;;;52.45;7.00;;;37.70;12.90;;;;;;5012973;28;20454;-62
2022/05/16 01:49:00;;;;;;;42.83;6.07;;;37.60;12.70;;;;;;5027082;28;20472;-62
2022/05/16 01:51:26;;;;;;;36.22;5.28;;;37.60;12.40;;;;;;5010654;28;20029;-63
2022/05/16 01:53:53;;;;;;;38.15;5.43;;;37.60;12.10;;;;;;5018587;28;20084;-62
2022/05/16 01:56:19;;;;;;;41.83;6.32;;;37.70;12.00;;;;;;5012161;28;20058;-61
2022/05/16 01:58:46;;;;;;;29.73;5.68;;;37.50;12.00;;;;;;5002665;28;20033;-61
2022/05/16 02:01:14;;;;;;;39.00;5.85;;;37.30;11.90;;;;;;5023491;28;20447;-62
2022/05/16 02:03:43;;;;;;;41.05;6.43;;;37.20;11.90;;;;;;5019173;28;20030;-62
2022/05/16 02:06:10;;;;;;;27.90;5.32;;;36.90;12.00;;;;;;5002865;28;20163;-61
2022/05/16 02:08:37;;;;;;;35.55;6.05;;;36.70;12.00;;;;;;5003090;28;21496;-62
2022/05/16 02:11:05;;;;;;;27.80;5.60;;;36.60;12.10;;;;;;5020603;28;20037;-60
2022/05/16 02:13:37;;;;;;;34.13;5.30;;;36.50;12.20;;;;;;5018466;28;20053;-60
2022/05/16 02:16:04;;;;;;;32.05;5.15;;;36.30;12.50;;;;;;5023802;28;20391;-61
2022/05/16 02:18:30;;;;;;;28.92;4.70;;;36.20;12.50;;;;;;5017752;28;20104;-61
2022/05/16 02:26:28;;;;;;;25.38;3.72;;;35.70;12.30;;;;;;5021659;28;20029;-61
2022/05/16 02:28:54;;;;;;;22.35;3.70;;;35.60;12.30;;;;;;5017604;28;20189;-61
2022/05/16 02:31:21;;;;;;;15.13;3.70;;;35.50;12.30;;;;;;5019240;28;20030;-62
2022/05/16 02:33:48;;;;;;;18.63;4.20;;;35.40;12.30;;;;;;5049614;28;20051;-62
2022/05/16 02:36:15;;;;;;;22.77;3.58;;;35.30;12.30;;;;;;5019825;28;20025;-61
2022/05/16 02:38:42;;;;;;;14.23;3.10;;;35.20;12.30;;;;;;5018472;28;20034;-61
2022/05/16 02:41:08;;;;;;;13.82;3.38;;;35.10;12.40;;;;;;5010798;28;20040;-62
2022/05/16 02:43:35;;;;;;;17.33;3.10;;;35.00;12.30;;;;;;5019023;28;20099;-61
2022/05/16 02:46:01;;;;;;;16.98;2.80;;;35.00;12.40;;;;;;5018427;28;20030;-61
2022/05/16 02:48:27;;;;;;;17.48;2.80;;;34.90;12.60;;;;;;5017902;28;20036;-60
2022/05/16 02:50:54;;;;;;;13.85;2.47;;;34.80;12.80;;;;;;5019097;28;20039;-60
2022/05/16 02:53:20;;;;;;;22.20;3.10;;;34.60;12.50;;;;;;5018116;28;20046;-61
2022/05/16 02:55:46;;;;;;;17.17;3.33;;;34.60;12.60;;;;;;5023173;28;20111;-61
2022/05/16 02:58:13;;;;;;;24.23;3.22;;;34.50;13.00;;;;;;5018862;28;20067;-63
2022/05/16 03:00:39;;;;;;;13.18;3.22;;;34.30;13.10;;;;;;5018648;28;20032;-62
2022/05/16 03:03:06;;;;;;;18.92;2.40;;;34.30;13.50;;;;;;5017801;28;20143;-61
2022/05/16 03:05:33;;;;;;;20.88;2.95;;;34.20;13.90;;;;;;5014604;28;20036;-61
2022/05/16 03:08:00;;;;;;;17.85;3.00;;;34.00;13.90;;;;;;5012348;28;20436;-63
2022/05/16 03:10:26;;;;;;;26.13;3.22;;;33.90;13.90;;;;;;5020328;28;20042;-62
2022/05/16 03:12:53;;;;;;;24.48;3.80;;;33.80;13.90;;;;;;5026499;28;20495;-62
2022/05/16 03:15:20;;;;;;;25.23;4.22;;;33.70;14.00;;;;;;4998512;28;21994;-62
2022/05/16 03:17:46;;;;;;;24.70;3.55;;;33.50;14.20;;;;;;5020464;28;20519;-62
2022/05/16 03:20:15;;;;;;;17.05;3.30;;;33.40;14.20;;;;;;5018088;28;20618;-60
2022/05/16 03:22:41;;;;;;;24.45;2.97;;;33.30;14.30;;;;;;5001247;28;20523;-61
2022/05/16 03:25:09;;;;;;;26.67;3.47;;;33.30;14.40;;;;;;5016359;28;20046;-62
2022/05/16 03:27:35;;;;;;;24.98;3.00;;;33.20;14.40;;;;;;5016455;28;20055;-61
2022/05/16 03:30:01;;;;;;;20.10;2.65;;;33.20;14.50;;;;;;5016419;28;20059;-61
2022/05/16 03:32:28;;;;;;;13.30;2.35;;;33.10;14.30;;;;;;5046039;28;20050;-56
2022/05/16 03:34:54;;;;;;;35.95;4.00;;;33.00;14.10;;;;;;5015475;28;20056;-62
2022/05/16 03:37:22;;;;;;;20.73;2.72;;;32.90;14.00;;;;;;5004246;28;20093;-62
2022/05/16 03:42:34;;;;;;;20.08;2.95;;;32.80;13.80;;;;;;5019001;28;20063;-62
2022/05/16 03:45:00;;;;;;;13.25;2.53;;;32.70;13.70;;;;;;5012702;28;20047;-61
2022/05/16 03:47:27;;;;;;;18.60;2.88;;;32.70;13.80;;;;;;5013760;28;20057;-61
2022/05/16 03:49:53;;;;;;;14.35;2.72;;;32.60;13.80;;;;;;5014465;28;20471;-62
2022/05/16 03:52:20;;;;;;;17.23;2.60;;;32.50;13.80;;;;;;5015548;28;20074;-60
2022/05/16 03:54:47;;;;;;;19.33;3.08;;;32.40;14.00;;;;;;5015259;28;20093;-62
2022/05/16 03:57:13;;;;;;;26.48;3.15;;;32.30;13.70;;;;;;5019780;28;20080;-61
2022/05/16 03:59:40;;;;;;;14.90;3.13;;;32.30;13.20;;;;;;5016155;28;20087;-61
2022/05/16 04:02:08;;;;;;;25.65;3.15;;;32.30;13.20;;;;;;5000833;28;20054;-61
2022/05/16 04:04:34;;;;;;;15.45;3.42;;;32.10;13.80;;;;;;5029743;28;20113;-60
2022/05/16 04:07:01;;;;;;;11.20;2.70;;;31.90;13.60;;;;;;5023756;28;20040;-62
2022/05/16 04:09:27;;;;;;;17.52;3.00;;;31.90;13.60;;;;;;5014726;28;20068;-62
2022/05/16 04:11:53;;;;;;;15.35;2.40;;;31.70;13.60;;;;;;5022903;28;20169;-61
2022/05/16 04:14:20;;;;;;;22.15;3.03;;;31.70;13.50;;;;;;5016429;28;20096;-62
2022/05/16 04:16:46;;;;;;;25.23;3.22;;;31.70;13.60;;;;;;4998108;28;20052;-62
2022/05/16 04:19:12;;;;;;;15.77;3.10;;;31.60;13.10;;;;;;5014344;28;20430;-62
2022/05/16 04:21:39;;;;;;;28.08;4.03;;;31.60;13.00;;;;;;5010804;28;20068;-62
2022/05/16 04:24:07;;;;;;;16.00;3.08;;;31.60;12.90;;;;;;5013386;28;20053;-61
2022/05/16 04:26:34;;;;;;;20.98;3.95;;;31.60;12.80;;;;;;5017569;28;20062;-62
2022/05/16 04:29:01;;;;;;;20.27;3.40;;;31.50;12.80;;;;;;5012993;28;20045;-62
2022/05/16 04:31:29;;;;;;;19.15;3.30;;;31.50;12.90;;;;;;5012071;28;20492;-61
2022/05/16 04:33:55;;;;;;;12.68;3.40;;;31.50;13.00;;;;;;5017116;28;20051;-62
2022/05/16 04:36:22;;;;;;;13.82;3.88;;;31.40;13.20;;;;;;5013945;28;20521;-60
2022/05/16 04:38:48;;;;;;;16.58;3.45;;;31.30;13.20;;;;;;5018928;28;20156;-60
2022/05/16 04:44:01;;;;;;;20.83;3.95;;;31.30;13.50;;;;;;4986031;28;20067;-61
2022/05/16 04:46:28;;;;;;;15.73;2.95;;;31.20;13.90;;;;;;5013379;28;20077;-62
2022/05/16 04:48:54;;;;;;;26.25;4.30;;;31.00;14.30;;;;;;5014588;28;20080;-62
2022/05/16 04:51:21;;;;;;;19.67;3.40;;;30.70;14.80;;;;;;5015924;28;20061;-61
2022/05/16 04:53:47;;;;;;;17.92;3.83;;;30.60;15.30;;;;;;5012166;28;20498;-62
2022/05/16 04:56:13;;;;;;;13.35;3.65;;;30.60;14.80;;;;;;5014794;28;20574;-61
2022/05/16 04:58:40;;;;;;;19.17;3.38;;;30.60;14.70;;;;;;5045988;28;20584;-62
2022/05/16 05:01:08;;;;;;;16.52;3.25;;;30.50;14.60;;;;;;5020126;28;20047;-61
2022/05/16 05:03:34;;;;;;;12.00;3.15;;;30.60;14.40;;;;;;5014222;28;20075;-62
2022/05/16 05:06:00;;;;;;;13.90;3.20;;;30.60;14.30;;;;;;5010317;28;20074;-61
2022/05/16 05:08:27;;;;;;;14.82;3.72;;;30.60;14.30;;;;;;5020088;28;20046;-60
2022/05/16 05:16:24;;;;;;;12.63;2.65;;;30.40;14.50;;;;;;5023928;28;20108;-61
2022/05/16 05:18:51;;;;;;;12.85;3.28;;;30.40;14.60;;;;;;5018444;28;20454;-62
2022/05/16 05:21:18;;;;;;;8.40;2.30;;;30.40;14.60;;;;;;5025022;28;20547;-62
2022/05/16 05:23:44;;;;;;;10.77;2.40;;;30.30;14.50;;;;;;5021177;28;20072;-61
2022/05/16 05:26:12;;;;;;;8.57;2.30;;;30.30;14.60;;;;;;5005502;28;20048;-59
2022/05/16 05:28:40;;;;;;;10.15;2.63;;;30.30;14.70;;;;;;5023047;28;20078;-60
2022/05/16 05:31:11;;;;;;;15.30;2.72;;;30.20;14.70;;;;;;5021026;28;20141;-60
2022/05/16 05:33:38;;;;;;;13.75;2.63;;;30.20;14.80;;;;;;5004093;28;20056;-61
2022/05/16 05:36:04;;;;;;;9.93;2.85;;;30.00;14.90;;;;;;5020221;28;20091;-60
2022/05/16 05:38:31;;;;;;;9.32;2.72;;;30.00;14.70;;;;;;5003683;28;20063;-61
2022/05/16 05:40:58;;;;;;;6.38;2.42;;;30.00;14.70;;;;;;4995910;28;20450;-60
2022/05/16 05:43:24;;;;;;;11.75;2.45;;;30.00;14.60;;;;;;5019319;28;20497;-61
2022/05/16 05:45:50;;;;;;;13.77;2.40;;;30.00;14.60;;;;;;5016383;28;20481;-63
2022/05/16 05:48:17;;;;;;;8.30;3.13;;;30.00;14.60;;;;;;5003890;28;20139;-61
2022/05/16 05:50:43;;;;;;;7.75;2.55;;;30.10;14.60;;;;;;5000813;28;20129;-61
2022/05/16 05:53:09;;;;;;;7.82;2.15;;;30.20;14.10;;;;;;5013403;28;20057;-62
2022/05/16 05:55:36;;;;;;;14.20;2.42;;;30.30;14.00;;;;;;5013416;28;20142;-62
2022/05/16 05:58:02;;;;;;;10.63;2.17;;;30.50;13.70;;;;;;5013997;28;20186;-63
2022/05/16 06:00:29;;;;;;;16.73;2.85;;;30.50;13.60;;;;;;5002451;28;20088;-61
2022/05/16 06:02:56;;;;;;;12.88;2.30;;;30.50;13.80;;;;;;5001919;28;20071;-61
2022/05/16 06:05:23;;;;;;;8.88;2.50;;;30.40;14.70;;;;;;5020302;28;20463;-61
2022/05/16 06:07:49;;;;;;;12.65;2.45;;;30.20;15.60;;;;;;4992218;28;20054;-60
2022/05/16 06:10:16;;;;;;;12.25;2.88;;;30.00;16.00;;;;;;5022226;28;20052;-60
2022/05/16 06:12:43;;;;;;;8.38;2.00;;;29.80;16.30;;;;;;5003587;28;20115;-59
2022/05/16 06:15:10;;;;;;;9.82;2.10;;;29.70;16.50;;;;;;5021698;28;20052;-60
2022/05/16 06:17:37;;;;;;;13.77;2.58;;;29.60;16.60;;;;;;5015831;28;20048;-60
2022/05/16 06:20:06;;;;;;;17.23;2.50;;;29.40;16.60;;;;;;5020361;28;20504;-60
2022/05/16 06:22:36;;;;;;;9.38;2.90;;;29.40;16.70;;;;;;5018581;28;20516;-60
2022/05/16 06:27:50;;;;;;;12.13;2.65;;;29.30;16.70;;;;;;5021233;28;20111;-62
2022/05/16 06:30:19;;;;;;;15.77;2.22;;;29.30;16.70;;;;;;5019718;28;20412;-60
2022/05/16 06:32:49;;;;;;;9.00;2.60;;;29.20;17.20;;;;;;5004808;28;20062;-60
2022/05/16 06:35:16;;;;;;;8.77;2.40;;;29.10;17.40;;;;;;5019651;28;20064;-61
2022/05/16 06:37:42;;;;;;;9.48;2.30;;;29.10;16.90;;;;;;5019172;28;20056;-60
2022/05/16 06:40:10;;;;;;;11.27;2.13;;;29.00;16.20;;;;;;5020561;28;20052;-61
2022/05/16 06:42:36;;;;;;;10.35;2.53;;;28.90;16.00;;;;;;5020236;28;20072;-61
2022/05/16 06:45:05;;;;;;;15.43;2.50;;;29.00;15.30;;;;;;5023710;28;20087;-59
2022/05/16 06:47:31;;;;;;;11.02;2.55;;;29.00;15.60;;;;;;5025878;28;20385;-61
2022/05/16 06:49:57;;;;;;;14.88;2.20;;;29.00;16.00;;;;;;5024916;28;20073;-61
2022/05/16 06:52:24;;;;;;;6.13;2.45;;;28.90;16.00;;;;;;5005827;28;20062;-61
2022/05/16 06:54:51;;;;;;;9.85;2.10;;;28.90;16.10;;;;;;5023179;28;20061;-60
2022/05/16 06:57:18;;;;;;;13.85;2.03;;;28.90;15.90;;;;;;5024739;28;20102;-62
2022/05/16 06:59:45;;;;;;;12.30;2.25;;;28.80;15.60;;;;;;5021965;28;20050;-59
2022/05/16 07:02:11;;;;;;;8.75;1.83;;;28.80;15.80;;;;;;5024763;28;20526;-60
2022/05/16 07:04:41;;;;;;;12.02;2.67;;;28.80;15.80;;;;;;5024241;28;20432;-59
2022/05/16 07:07:08;;;;;;;16.27;2.80;;;28.70;15.80;;;;;;5007191;28;20072;-62
2022/05/16 07:09:39;;;;;;;12.55;2.47;;;28.70;15.70;;;;;;5000906;28;20052;-60
2022/05/16 07:12:07;;;;;;;14.20;2.92;;;28.70;15.40;;;;;;5019224;28;20143;-59
2022/05/16 07:14:34;;;;;;;9.32;2.75;;;28.80;15.10;;;;;;5022436;28;20060;-63
2022/05/16 07:17:01;;;;;;;5.75;1.95;;;28.80;15.20;;;;;;5019901;28;20056;-60
2022/05/16 07:19:31;;;;;;;6.72;2.17;;;28.90;14.90;;;;;;5021467;28;20069;-62
2022/05/16 07:21:58;;;;;;;9.25;2.33;;;28.90;14.70;;;;;;5021718;28;20079;-61
2022/05/16 07:24:25;;;;;;;7.22;2.03;;;28.90;14.60;;;;;;5021578;28;20050;-62
2022/05/16 07:29:36;;;;;;;6.93;1.55;;;29.00;14.50;;;;;;5022223;28;20084;-61
2022/05/16 07:32:03;;;;;;;6.30;1.85;;;29.00;14.40;;;;;;5020957;28;20077;-60
2022/05/16 07:34:29;;;;;;;16.30;2.05;;;29.10;14.40;;;;;;5022959;28;20068;-62
2022/05/16 07:36:55;;;;;;;11.93;2.88;;;29.00;14.40;;;;;;5023024;28;20062;-61
2022/05/16 07:39:22;;;;;;;11.10;1.85;;;29.00;14.50;;;;;;5022147;28;20470;-61
2022/05/16 07:41:52;;;;;;;6.85;2.00;;;29.00;14.40;;;;;;5022210;28;20069;-60
2022/05/16 07:44:18;;;;;;;10.43;1.63;;;29.00;14.50;;;;;;5005231;28;20418;-60
2022/05/16 07:46:45;;;;;;;6.97;2.25;;;29.00;14.40;;;;;;5022168;28;20054;-61
2022/05/16 07:49:13;;;;;;;6.38;2.00;;;29.00;14.40;;;;;;5021529;28;20165;-61
2022/05/16 07:51:40;;;;;;;5.65;2.10;;;29.00;14.10;;;;;;5005281;28;20064;-60
2022/05/16 07:54:08;;;;;;;7.88;1.80;;;29.10;13.90;;;;;;5001675;28;20957;-61
2022/05/16 07:56:34;;;;;;;11.20;1.98;;;29.10;13.80;;;;;;5008803;28;20107;-61
2022/05/16 07:59:02;;;;;;;8.52;1.92;;;29.10;13.70;;;;;;5003611;28;20619;-60
2022/05/16 08:01:29;;;;;;;7.47;1.52;;;29.10;13.60;;;;;;5021900;28;20111;-61
2022/05/16 08:03:55;;;;;;;8.80;1.70;;;29.20;13.50;;;;;;4991887;28;20078;-60
2022/05/16 08:06:26;;;;;;;4.03;1.40;;;29.20;13.20;;;;;;5021393;28;20133;-59
2022/05/16 08:11:40;;;;;;;6.78;1.83;;;29.20;13.10;;;;;;5021960;28;20084;-60
2022/05/16 08:14:07;;;;;;;6.82;1.42;;;29.20;13.10;;;;;;5001003;28;20154;-62
2022/05/16 08:16:34;;;;;;;2.78;1.23;;;29.20;12.80;;;;;;4991011;28;20421;-59
2022/05/16 08:19:00;;;;;;;7.78;1.50;;;29.20;12.80;;;;;;5023459;28;20077;-59
2022/05/16 08:21:26;;;;;;;7.55;1.80;;;29.30;12.70;;;;;;5020004;28;20547;-62
2022/05/16 08:23:53;;;;;;;5.90;1.70;;;29.20;12.70;;;;;;5002643;28;20079;-61
2022/05/16 08:26:19;;;;;;;6.28;1.17;;;29.20;12.70;;;;;;5020737;28;20498;-61
2022/05/16 08:28:46;;;;;;;3.38;1.25;;;29.20;12.50;;;;;;5005751;28;20065;-61
2022/05/16 08:31:13;;;;;;;10.38;1.70;;;29.20;12.50;;;;;;5021690;28;20062;-59
2022/05/16 08:33:40;;;;;;;10.95;1.60;;;29.20;12.50;;;;;;5023666;28;20076;-60
2022/05/16 08:41:53;;;;;;;2.83;1.30;;;29.10;12.80;;;;;;5021775;28;20100;-61
2022/05/16 08:44:43;;;;;;;5.15;1.30;;;29.00;12.80;;;;;;5021488;28;20523;-56
2022/05/16 08:47:22;;;;;;;4.68;1.48;;;28.90;12.80;;;;;;5005955;28;20174;-61
2022/05/16 08:49:57;;;;;;;5.10;1.40;;;28.80;12.90;;;;;;5020725;28;20069;-58
2022/05/16 08:52:29;;;;;;;3.20;1.27;;;28.70;13.00;;;;;;5021692;28;20056;-60
2022/05/16 08:55:25;;;;;;;9.57;2.08;;;28.70;13.00;;;;;;5019952;28;20080;-63
2022/05/16 08:58:04;;;;;;;2.42;1.20;;;28.60;13.10;;;;;;5020831;28;20147;-60
2022/05/16 09:00:47;;;;;;;5.97;1.60;;;28.60;13.20;;;;;;5023003;28;20059;-63
2022/05/16 09:03:18;;;;;;;7.05;1.25;;;28.40;13.10;;;;;;5022115;28;20078;-64
2022/05/16 09:05:51;;;;;;;5.55;1.30;;;28.40;13.20;;;;;;5020060;28;20180;-61
2022/05/16 09:08:38;;;;;;;3.97;1.25;;;28.30;13.30;;;;;;5023127;28;20052;-59
2022/05/16 09:11:10;;;;;;;6.60;1.42;;;28.20;13.40;;;;;;5022439;28;20068;-60
2022/05/16 09:13:46;;;;;;;4.57;1.40;;;28.10;13.50;;;;;;5002380;28;20203;-60
2022/05/16 09:16:40;;;;;;;11.35;1.70;;;28.10;13.50;;;;;;5019274;28;20113;-63
2022/05/16 09:19:34;;;;;;;6.40;1.20;;;28.00;13.40;;;;;;5018428;28;20557;-61
2022/05/16 09:22:11;;;;;;;8.32;1.67;;;27.90;13.50;;;;;;5022874;28;20108;-60
2022/05/16 09:25:03;;;;;;;10.43;1.42;;;27.80;13.70;;;;;;5009140;28;20157;-60
2022/05/16 09:30:21;;;;;;;6.47;1.17;;;27.80;13.40;;;;;;5020419;28;20541;-59
2022/05/16 09:32:53;;;;;;;6.47;1.13;;;27.70;13.20;;;;;;5002414;28;20128;-60
2022/05/16 09:35:26;;;;;;;6.95;1.55;;;27.70;13.30;;;;;;5017976;28;20617;-60
2022/05/16 09:37:56;;;;;;;3.33;1.40;;;27.60;13.40;;;;;;5022652;28;20076;-61
2022/05/16 09:40:33;;;;;;;6.88;1.45;;;27.60;13.60;;;;;;5018599;28;20104;-59
2022/05/16 09:43:14;;;;;;;5.40;1.30;;;27.60;13.10;;;;;;5001094;28;20105;-61
2022/05/16 09:45:45;;;;;;;7.30;1.20;;;27.60;12.90;;;;;;5018682;28;20087;-59
2022/05/16 09:48:19;;;;;;;9.70;1.80;;;27.60;12.70;;;;;;5022162;28;20068;-60
2022/05/16 09:51:04;;;;;;;5.20;1.35;;;27.70;12.50;;;;;;5023124;28;20151;-62
2022/05/16 09:53:37;;;;;;;5.57;1.20;;;27.70;12.30;;;;;;5019587;28;20154;-60
2022/05/16 09:56:36;;;;;;;3.67;1.10;;;27.70;12.20;;;;;;5021046;28;20105;-60
2022/05/16 09:59:04;;;;;;;4.95;1.20;;;27.70;12.40;;;;;;4972325;28;20086;-60
2022/05/16 10:01:43;;;;;;;5.25;1.10;;;27.60;12.70;;;;;;4954579;28;20137;-60
2022/05/16 10:04:19;;;;;;;5.43;1.20;;;27.50;12.70;;;;;;4953036;28;20064;-60
2022/05/16 10:07:02;;;;;;;6.43;1.15;;;27.50;12.90;;;;;;4938473;28;20174;-59
2022/05/16 10:09:33;;;;;;;4.93;1.23;;;27.40;13.00;;;;;;4954382;28;20137;-60
2022/05/16 10:12:01;;;;;;;6.53;1.35;;;27.30;13.00;;;;;;4971467;28;20068;-60
2022/05/16 10:14:27;;;;;;;2.80;1.02;;;27.30;13.00;;;;;;4969361;28;20091;-58
2022/05/16 10:16:54;;;;;;;5.97;1.20;;;27.20;12.40;;;;;;4957133;28;20497;-59
2022/05/16 10:19:27;;;;;;;3.85;1.27;;;27.40;11.70;;;;;;4957288;28;20105;-60
2022/05/16 10:21:55;;;;;;;5.70;1.10;;;27.60;11.40;;;;;;4958200;28;20088;-60
2022/05/16 10:24:27;;;;;;;3.33;0.80;;;27.60;11.40;;;;;;4941832;28;20176;-60
2022/05/16 10:26:56;;;;;;;4.20;1.30;;;27.70;11.10;;;;;;4958694;28;20055;-60
2022/05/16 10:29:34;;;;;;;3.75;0.88;;;27.80;11.20;;;;;;4957647;28;20062;-60
2022/05/16 10:35:18;;;;;;;5.43;1.05;;;27.80;11.30;;;;;;5010567;28;20072;-60
2022/05/16 10:37:47;;;;;;;6.22;1.10;;;27.80;11.50;;;;;;5022819;28;20583;-60
2022/05/16 10:40:32;;;;;;;5.88;1.13;;;27.80;11.30;;;;;;5023439;28;20085;-60
2022/05/16 10:43:46;;;;;;;5.88;1.02;;;27.70;11.40;;;;;;5007307;28;20086;-59
2022/05/16 10:46:34;;;;;;;4.20;1.30;;;27.60;12.00;;;;;;4973613;28;20612;-59
2022/05/16 10:49:11;;;;;;;5.25;1.10;;;27.50;12.40;;;;;;5020867;28;20089;-60
2022/05/16 10:51:48;;;;;;;8.18;1.20;;;27.30;13.20;;;;;;5025252;28;20413;-60
2022/05/16 10:54:20;;;;;;;10.05;4.32;;;27.10;13.70;;;;;;5006699;28;20606;-60
2022/05/16 10:57:08;;;;;;;9.75;4.55;;;26.90;13.40;;;;;;5022711;28;20154;-62
2022/05/16 10:59:57;;;;;;;4.70;2.50;;;26.90;12.50;;;;;;5024353;28;20159;-60
2022/05/16 11:03:00;;;;;;;1.95;1.23;;;27.00;11.80;;;;;;5022119;28;20097;-61
2022/05/16 11:05:56;;;;;;;4.38;1.02;;;27.20;11.30;;;;;;5020588;28;20207;-60
2022/05/16 11:08:53;;;;;;;4.82;1.17;;;27.40;11.10;;;;;;5024322;28;20532;-62
2022/05/16 11:11:42;;;;;;;4.60;1.17;;;27.50;11.10;;;;;;5008085;28;20119;-60
2022/05/16 11:14:32;;;;;;;5.97;1.10;;;27.50;11.00;;;;;;5020098;28;20059;-61
2022/05/16 11:17:26;;;;;;;2.85;0.90;;;27.60;10.90;;;;;;5021872;28;20565;-58
2022/05/16 11:20:06;;;;;;;3.78;1.65;;;27.60;11.20;;;;;;5022783;28;20062;-61
2022/05/16 11:22:40;;;;;;;14.68;4.57;;;27.60;11.80;;;;;;5022553;28;20452;-60
2022/05/16 11:25:19;;;;;;;17.55;4.50;;;27.40;13.90;;;;;;5005833;28;20068;-59
2022/05/16 11:28:02;;;;;;;25.13;4.35;;;27.20;14.40;;;;;;5021473;28;20537;-62
2022/05/16 11:30:44;;;;;;;17.83;4.82;;;26.90;14.80;;;;;;5023628;28;20070;-59
2022/05/16 11:33:23;;;;;;;17.92;4.82;;;26.80;15.30;;;;;;5020347;28;20072;-59
2022/05/16 11:35:53;;;;;;;23.70;6.25;;;26.50;15.40;;;;;;5021543;28;20139;-60
2022/05/16 11:38:38;;;;;;;33.83;7.38;;;26.40;16.30;;;;;;5024267;28;20071;-60
2022/05/16 11:41:14;;;;;;;31.83;7.40;;;26.20;17.00;;;;;;5018035;28;20139;-60
2022/05/16 11:43:52;;;;;;;35.33;9.77;;;26.00;17.30;;;;;;5023306;28;20074;-62
2022/05/16 11:46:26;;;;;;;37.40;11.85;;;25.80;18.00;;;;;;5023320;28;20555;-60
2022/05/16 11:49:02;;;;;;;65.45;12.23;;;25.70;18.80;;;;;;5021651;28;20178;-60
2022/05/16 11:51:53;;;;;;;59.08;16.77;;;25.50;19.30;;;;;;5018956;28;20072;-60
2022/05/16 11:54:31;;;;;;;57.65;17.45;;;25.30;20.10;;;;;;5024178;28;20069;-60
2022/05/16 12:03:11;;;;;;;69.18;20.20;;;24.90;21.60;;;;;;5022420;28;20102;-59
2022/05/16 12:05:45;;;;;;;72.70;19.85;;;24.60;21.90;;;;;;5008089;28;20538;-60
2022/05/16 12:08:31;;;;;;;70.72;22.08;;;24.60;22.80;;;;;;5006282;28;20073;-60
2022/05/16 12:11:04;;;;;;;65.30;23.00;;;24.50;23.50;;;;;;5019216;28;20067;-63
2022/05/16 12:13:35;;;;;;;72.07;22.75;;;24.30;23.90;;;;;;5023221;28;20076;-61
2022/05/16 12:16:19;;;;;;;75.00;23.65;;;24.30;23.90;;;;;;5021846;28;20614;-61
2022/05/16 12:19:09;;;;;;;78.60;23.38;;;24.10;24.10;;;;;;5020179;28;20097;-60
2022/05/16 12:21:36;;;;;;;80.47;23.00;;;24.00;24.50;;;;;;5018663;28;20112;-61
2022/05/16 12:24:27;;;;;;;73.65;20.73;;;23.80;24.50;;;;;;5020225;28;20600;-59
2022/05/16 12:26:59;;;;;;;61.97;18.27;;;23.70;24.90;;;;;;5009593;28;20113;-60
2022/05/16 12:29:39;;;;;;;49.08;12.70;;;23.60;24.20;;;;;;5020867;28;20523;-60
2022/05/16 12:32:05;;;;;;;36.28;10.32;;;23.70;23.00;;;;;;5021447;28;20275;-60
2022/05/16 12:34:32;;;;;;;22.95;8.73;;;23.80;22.00;;;;;;5002305;28;20078;-60
2022/05/16 12:37:00;;;;;;;31.20;7.40;;;23.80;21.10;;;;;;5021314;28;20100;-59
2022/05/16 12:39:51;;;;;;;37.08;9.07;;;23.90;21.50;;;;;;5005836;28;20097;-60
2022/05/16 12:42:45;;;;;;;57.78;14.40;;;23.90;21.50;;;;;;5022477;28;20133;-59
2022/05/16 12:46:09;;;;;;;69.93;20.75;;;23.90;23.00;;;;;;5023409;28;20442;-60
2022/05/16 12:49:12;;;;;;;90.55;21.52;;;23.90;25.60;;;;;;4932173;28;20167;-63
2022/05/16 12:52:19;;;;;;;71.65;20.77;;;23.90;26.20;;;;;;4949886;28;20077;-59
2022/05/16 12:55:22;;;;;;;74.68;20.42;;;23.80;25.30;;;;;;4902296;28;20108;-60
2022/05/16 12:58:27;;;;;;;46.35;17.77;;;23.80;25.80;;;;;;4950234;28;20116;-59
2022/05/16 13:01:28;;;;;;;61.45;17.10;;;23.80;25.70;;;;;;4933113;28;20108;-60
2022/05/16 13:04:11;;;;;;;79.05;18.77;;;23.80;26.20;;;;;;4949400;28;20080;-61
2022/05/16 13:07:02;;;;;;;66.72;19.35;;;23.80;26.80;;;;;;4933187;28;20577;-63
2022/05/16 13:09:48;;;;;;;68.65;19.15;;;23.70;27.60;;;;;;4934911;28;20074;-62
2022/05/16 13:12:46;;;;;;;78.18;19.63;;;23.80;27.30;;;;;;4913377;28;20089;-61
2022/05/16 13:15:25;;;;;;;;;;;23.70;26.90;;;;;;4948162;28;20166;-62
2022/05/16 13:17:57;;;;;;;59.33;15.85;;;23.70;26.90;;;;;;4950063;28;20340;-59
2022/05/16 13:20:30;;;;;;;56.83;15.63;;;23.80;27.40;;;;;;5027443;28;20615;-61
2022/05/16 13:22:58;;;;;;;63.28;14.68;;;23.80;27.80;;;;;;5019298;28;20091;-61
2022/05/16 13:25:26;;;;;;;65.82;13.85;;;23.80;28.50;;;;;;5022112;28;20073;-61
2022/05/16 13:30:47;;;;;;;47.50;12.65;;;23.80;28.70;;;;;;5014098;28;20581;-59
2022/05/16 13:33:26;;;;;;;37.60;11.82;;;23.80;27.20;;;;;;4995272;28;20734;-62
2022/05/16 13:35:53;;;;;;;43.40;11.10;;;23.90;27.30;;;;;;5015104;28;20080;-61
2022/05/16 13:38:19;;;;;;;49.63;10.35;;;24.00;27.40;;;;;;5013366;28;20072;-59
2022/05/16 13:40:48;;;;;;;43.50;9.63;;;24.10;27.30;;;;;;5015228;28;20131;-61
2022/05/16 13:43:23;;;;;;;36.85;9.32;;;24.10;25.80;;;;;;5011328;28;20084;-60
2022/05/16 13:46:04;;;;;;;48.38;9.40;;;24.20;25.50;;;;;;5007816;28;20157;-61
2022/05/16 13:48:31;;;;;;;59.95;8.57;;;24.30;25.80;;;;;;5011031;28;20094;-62
2022/05/16 13:51:02;;;;;;;81.18;14.27;;;24.40;24.10;;;;;;5013489;28;20536;-60
2022/05/16 13:53:30;;;;;;;67.47;13.30;;;24.50;24.60;;;;;;5007405;28;20075;-59